createdAt,value
2023-05-27T00:01:32.608Z,100688.13
2023-05-27T00:04:35.938Z,100688.91
2023-05-27T00:07:38.813Z,100683.75
2023-05-27T00:10:41.970Z,100685.75
2023-05-27T00:13:45.068Z,100684.97
2023-05-27T00:16:48.237Z,100674.59
2023-05-27T00:19:52.922Z,100677.84
2023-05-27T00:22:57.823Z,100684.25
2023-05-27T00:26:00.580Z,100677.91
2023-05-27T00:29:03.646Z,100681.13
2023-05-27T00:32:06.712Z,100682.31
2023-05-27T00:35:10.668Z,100678.31
2023-05-27T00:38:13.524Z,100679.50
2023-05-27T00:41:16.719Z,100678.69
2023-05-27T00:44:19.797Z,100683.09
2023-05-27T00:47:23.511Z,100680.72
2023-05-27T00:50:27.521Z,100675.50
2023-05-27T00:53:38.804Z,100677.91
2023-05-27T00:56:42.583Z,100671.94
2023-05-27T00:59:46.697Z,100674.72
2023-05-27T01:02:50.380Z,100676.28
2023-05-27T01:06:01.758Z,100672.28
2023-05-27T01:09:28.996Z,100677.87
2023-05-27T01:13:01.500Z,100679.47
2023-05-27T01:16:14.832Z,100677.06
2023-05-27T01:19:48.817Z,100682.28
2023-05-27T01:22:53.798Z,100686.28
2023-05-27T01:25:56.945Z,100686.66
2023-05-27T01:29:00.068Z,100679.47
2023-05-27T01:32:07.453Z,100682.69
2023-05-27T01:35:19.354Z,100678.69
2023-05-27T01:38:26.323Z,100683.88
2023-05-27T01:41:29.797Z,100681.06
2023-05-27T01:44:34.373Z,100677.06
2023-05-27T01:47:38.536Z,100673.50
2023-05-27T01:50:41.613Z,100677.87
2023-05-27T01:53:44.775Z,100674.59
2023-05-27T01:56:47.898Z,100667.37
2023-05-27T01:59:50.702Z,100667.00
2023-05-27T02:02:54.182Z,100665.38
2023-05-27T02:05:57.655Z,100673.47
2023-05-27T02:09:00.581Z,100672.25
2023-05-27T02:12:04.134Z,100671.88
2023-05-27T02:15:08.788Z,100662.69
2023-05-27T02:18:14.274Z,100661.88
2023-05-27T02:21:17.679Z,100664.69
2023-05-27T02:24:20.773Z,100665.09
2023-05-27T02:27:25.134Z,100659.88
2023-05-27T02:30:28.459Z,100653.91
2023-05-27T02:33:32.261Z,100657.09
2023-05-27T02:36:36.103Z,100661.91
2023-05-27T02:39:40.161Z,100665.50
2023-05-27T02:42:43.404Z,100669.50
2023-05-27T02:45:47.168Z,100665.88
2023-05-27T02:48:50.534Z,100670.66
2023-05-27T02:51:54.229Z,100675.47
2023-05-27T02:54:57.829Z,100673.84
2023-05-27T02:58:00.781Z,100667.09
2023-05-27T03:01:04.059Z,100665.88
2023-05-27T03:04:07.023Z,100674.28
2023-05-27T03:07:11.032Z,100669.84
2023-05-27T03:10:13.802Z,100679.75
2023-05-27T03:13:16.902Z,100667.34
2023-05-27T03:16:20.994Z,100683.25
2023-05-27T03:19:24.240Z,100690.41
2023-05-27T03:22:27.071Z,100688.81
2023-05-27T03:25:30.326Z,100694.41
2023-05-27T03:28:34.407Z,100696.34
2023-05-27T03:31:37.937Z,100689.44
2023-05-27T03:34:40.965Z,100691.44
2023-05-27T03:37:44.762Z,100691.47
2023-05-27T03:40:47.528Z,100693.47
2023-05-27T03:43:50.897Z,100688.22
2023-05-27T03:46:54.182Z,100692.59
2023-05-27T03:49:57.356Z,100699.00
2023-05-27T03:53:00.023Z,100696.22
2023-05-27T03:56:04.056Z,100695.03
2023-05-27T03:59:10.002Z,100697.81
2023-05-27T04:02:13.678Z,100695.88
2023-05-27T04:05:18.151Z,100707.06
2023-05-27T04:08:23.659Z,100703.91
2023-05-27T04:11:28.787Z,100703.53
2023-05-27T04:14:32.216Z,100700.75
2023-05-27T04:17:36.772Z,100704.75
2023-05-27T04:20:41.778Z,100701.97
2023-05-27T04:23:45.587Z,100708.00
2023-05-27T04:26:49.035Z,100706.84
2023-05-27T04:29:52.450Z,100704.16
2023-05-27T04:32:56.011Z,100709.81
2023-05-27T04:35:59.168Z,100717.38
2023-05-27T04:39:03.542Z,100718.25
2023-05-27T04:42:07.188Z,100728.25
2023-05-27T04:45:15.628Z,100725.06
2023-05-27T04:48:21.225Z,100725.47
2023-05-27T04:51:24.213Z,100725.47
2023-05-27T04:54:28.234Z,100725.09
2023-05-27T04:57:31.238Z,100736.28
2023-05-27T05:00:50.890Z,100730.31
2023-05-27T05:04:04.916Z,100732.31
2023-05-27T05:07:08.746Z,100743.09
2023-05-27T05:10:12.759Z,100743.09
2023-05-27T05:13:17.444Z,100749.13
2023-05-27T05:16:20.240Z,100749.13
2023-05-27T05:19:23.388Z,100743.09
2023-05-27T05:22:27.483Z,100736.72
2023-05-27T05:25:31.693Z,100744.28
2023-05-27T05:28:35.674Z,100743.47
2023-05-27T05:31:39.128Z,100739.50
2023-05-27T05:34:43.337Z,100745.09
2023-05-27T05:37:47.140Z,100738.72
2023-05-27T05:40:53.663Z,100739.50
2023-05-27T05:43:58.383Z,100739.47
2023-05-27T05:47:01.663Z,100747.44
2023-05-27T05:50:05.222Z,100746.59
2023-05-27T05:53:08.679Z,100751.03
2023-05-27T05:56:12.002Z,100750.56
2023-05-27T05:59:14.911Z,100755.34
2023-05-27T06:02:18.184Z,100763.31
2023-05-27T06:05:23.457Z,100758.47
2023-05-27T06:08:26.398Z,100764.81
2023-05-27T06:11:31.734Z,100764.38
2023-05-27T06:14:35.001Z,100769.56
2023-05-27T06:17:38.449Z,100772.34
2023-05-27T06:20:41.517Z,100766.91
2023-05-27T06:23:44.986Z,100770.53
2023-05-27T06:26:51.039Z,100770.91
2023-05-27T06:29:54.182Z,100765.81
2023-05-27T06:32:57.734Z,100762.81
2023-05-27T06:36:01.457Z,100770.84
2023-05-27T06:39:05.154Z,100769.19
2023-05-27T06:42:09.323Z,100768.41
2023-05-27T06:45:13.604Z,100767.00
2023-05-27T06:48:17.210Z,100769.03
2023-05-27T06:51:20.034Z,100776.69
2023-05-27T06:54:23.522Z,100778.41
2023-05-27T06:57:27.090Z,100781.56
2023-05-27T07:00:31.277Z,100784.62
2023-05-27T07:03:35.627Z,100778.66
2023-05-27T07:06:39.451Z,100782.06
2023-05-27T07:09:42.561Z,100783.88
2023-05-27T07:12:46.020Z,100787.19
2023-05-27T07:15:52.481Z,100785.94
2023-05-27T07:18:55.737Z,100783.59
2023-05-27T07:21:58.771Z,100782.75
2023-05-27T07:25:02.534Z,100789.84
2023-05-27T07:28:05.949Z,100784.31
2023-05-27T07:31:10.150Z,100785.87
2023-05-27T07:34:13.555Z,100786.19
2023-05-27T07:37:16.728Z,100784.62
2023-05-27T07:40:19.530Z,100783.91
2023-05-27T07:43:22.820Z,100789.03
2023-05-27T07:46:32.075Z,100783.75
2023-05-27T07:49:35.307Z,100783.84
2023-05-27T07:52:38.564Z,100787.31
2023-05-27T07:55:46.130Z,100781.50
2023-05-27T07:58:49.324Z,100784.19
2023-05-27T08:01:52.890Z,100781.75
2023-05-27T08:04:56.883Z,100787.84
2023-05-27T08:08:00.410Z,100779.81
2023-05-27T08:11:04.454Z,100778.44
2023-05-27T08:14:14.258Z,100777.34
2023-05-27T08:17:18.007Z,100767.16
2023-05-27T08:20:21.530Z,100766.06
2023-05-27T08:23:26.538Z,100768.22
2023-05-27T08:26:29.775Z,100752.59
2023-05-27T08:29:34.883Z,100753.47
2023-05-27T08:32:37.793Z,100756.81
2023-05-27T08:35:40.976Z,100749.22
2023-05-27T08:38:44.031Z,100769.19
2023-05-27T08:41:47.657Z,100755.78
2023-05-27T08:44:51.523Z,100747.88
2023-05-27T08:47:55.224Z,100754.38
2023-05-27T08:50:59.859Z,100754.59
2023-05-27T08:54:03.214Z,100750.88
2023-05-27T08:57:08.901Z,100750.22
2023-05-27T09:00:13.400Z,100756.31
2023-05-27T09:03:17.927Z,100752.34
2023-05-27T09:06:21.879Z,100748.25
2023-05-27T09:09:24.648Z,100748.06
2023-05-27T09:12:28.238Z,100749.75
2023-05-27T09:15:33.379Z,100744.94
2023-05-27T09:18:37.373Z,100745.56
2023-05-27T09:21:40.201Z,100743.53
2023-05-27T09:24:43.658Z,100741.63
2023-05-27T09:27:46.864Z,100737.84
2023-05-27T09:31:10.026Z,100743.88
2023-05-27T09:34:16.626Z,100735.97
2023-05-27T09:37:22.208Z,100734.94
2023-05-27T09:40:27.015Z,100739.44
2023-05-27T09:43:31.166Z,100746.09
2023-05-27T09:46:34.868Z,100744.72
2023-05-27T09:49:39.408Z,100748.53
2023-05-27T09:52:44.484Z,100739.84
2023-05-27T09:55:54.838Z,100735.87
2023-05-27T09:58:59.253Z,100736.50
2023-05-27T10:02:05.543Z,100734.47
2023-05-27T10:05:09.801Z,100728.63
2023-05-27T10:08:25.196Z,100731.00
2023-05-27T10:11:33.498Z,100728.31
2023-05-27T10:14:36.762Z,100719.44
2023-05-27T10:17:49.698Z,100713.06
2023-05-27T10:20:53.068Z,100711.13
2023-05-27T10:24:03.157Z,100712.50
2023-05-27T10:27:07.239Z,100711.28
2023-05-27T10:30:10.532Z,100714.75
2023-05-27T10:33:14.377Z,100711.41
2023-05-27T10:36:23.043Z,100708.72
2023-05-27T10:39:27.517Z,100699.09
2023-05-27T10:42:32.152Z,100708.03
2023-05-27T10:45:35.657Z,100714.09
2023-05-27T10:48:41.170Z,100701.44
2023-05-27T10:51:45.446Z,100701.50
2023-05-27T10:54:49.813Z,100701.13
2023-05-27T10:57:52.948Z,100705.28
2023-05-27T11:00:59.958Z,100703.00
2023-05-27T11:04:02.761Z,100699.56
2023-05-27T11:07:06.121Z,100705.31
2023-05-27T11:10:10.167Z,100698.13
2023-05-27T11:13:13.354Z,100696.22
2023-05-27T11:16:17.446Z,100686.69
2023-05-27T11:19:22.318Z,100686.81
2023-05-27T11:22:25.098Z,100683.00
2023-05-27T11:25:28.350Z,100682.47
2023-05-27T11:28:31.493Z,100681.91
2023-05-27T11:31:34.653Z,100682.69
2023-05-27T11:34:38.136Z,100674.56
2023-05-27T11:37:41.396Z,100681.78
2023-05-27T11:40:44.090Z,100672.13
2023-05-27T11:43:51.733Z,100665.66
2023-05-27T11:47:03.503Z,100667.47
2023-05-27T11:50:07.690Z,100661.78
2023-05-27T11:53:10.437Z,100651.88
2023-05-27T11:56:14.524Z,100654.37
2023-05-27T11:59:17.583Z,100652.47
2023-05-27T12:02:22.865Z,100649.63
2023-05-27T12:08:35.986Z,100652.28
2023-05-27T12:11:39.870Z,100648.97
2023-05-27T12:14:42.900Z,100641.31
2023-05-27T12:17:46.128Z,100643.66
2023-05-27T12:20:49.015Z,100639.47
2023-05-27T12:23:52.539Z,100640.37
2023-05-27T12:26:55.794Z,100638.03
2023-05-27T12:29:58.845Z,100633.06
2023-05-27T12:33:02.616Z,100636.91
2023-05-27T12:36:08.912Z,100643.34
2023-05-27T12:39:11.885Z,100639.88
2023-05-27T12:42:16.749Z,100626.25
2023-05-27T12:45:23.294Z,100622.12
2023-05-27T12:48:26.589Z,100624.22
2023-05-27T12:51:29.787Z,100609.19
2023-05-27T12:54:33.140Z,100608.28
2023-05-27T12:57:35.959Z,100603.53
2023-05-27T13:00:39.266Z,100592.97
2023-05-27T13:03:42.492Z,100596.06
2023-05-27T13:06:45.667Z,100596.97
2023-05-27T13:09:49.449Z,100598.78
2023-05-27T13:12:53.339Z,100587.75
2023-05-27T13:15:56.163Z,100584.22
2023-05-27T13:18:59.275Z,100583.69
2023-05-27T13:22:02.758Z,100578.56
2023-05-27T13:25:06.991Z,100583.50
2023-05-27T13:28:09.847Z,100575.16
2023-05-27T13:31:12.921Z,100571.28
2023-05-27T13:34:19.021Z,100578.50
2023-05-27T13:37:22.314Z,100563.34
2023-05-27T13:40:25.095Z,100558.72
2023-05-27T13:43:28.545Z,100551.72
2023-05-27T13:46:31.382Z,100550.56
2023-05-27T13:49:34.695Z,100546.28
2023-05-27T13:52:37.791Z,100546.16
2023-05-27T13:55:40.905Z,100541.50
2023-05-27T13:58:43.692Z,100543.13
2023-05-27T14:01:47.028Z,100534.06
2023-05-27T14:04:50.443Z,100532.03
2023-05-27T14:07:53.561Z,100539.50
2023-05-27T14:10:56.625Z,100525.41
2023-05-27T14:14:00.426Z,100527.06
2023-05-27T14:17:03.668Z,100525.19
2023-05-27T14:20:12.296Z,100519.84
2023-05-27T14:23:17.653Z,100507.56
2023-05-27T14:26:20.425Z,100523.03
2023-05-27T14:29:23.536Z,100508.16
2023-05-27T14:32:26.309Z,100512.44
2023-05-27T14:35:29.891Z,100502.16
2023-05-27T14:38:32.689Z,100496.94
2023-05-27T14:41:36.088Z,100506.25
2023-05-27T14:44:39.645Z,100499.91
2023-05-27T14:47:42.733Z,100503.38
2023-05-27T14:50:46.318Z,100499.22
2023-05-27T14:53:49.620Z,100493.03
2023-05-27T14:56:52.621Z,100494.16
2023-05-27T14:59:55.718Z,100486.81
2023-05-27T15:02:58.524Z,100490.12
2023-05-27T15:06:01.841Z,100489.75
2023-05-27T15:09:04.698Z,100491.91
2023-05-27T15:12:08.100Z,100482.69
2023-05-27T15:15:16.234Z,100470.47
2023-05-27T15:18:19.358Z,100478.47
2023-05-27T15:21:22.676Z,100484.22
2023-05-27T15:24:25.766Z,100476.72
2023-05-27T15:27:28.540Z,100469.34
2023-05-27T15:30:32.783Z,100473.91
2023-05-27T15:33:35.662Z,100478.59
2023-05-27T15:36:39.090Z,100475.69
2023-05-27T15:39:41.985Z,100475.13
2023-05-27T15:42:45.422Z,100459.94
2023-05-27T15:46:02.880Z,100472.00
2023-05-27T15:49:06.966Z,100467.00
2023-05-27T15:52:12.219Z,100469.72
2023-05-27T15:55:15.556Z,100466.16
2023-05-27T15:58:18.482Z,100469.59
2023-05-27T16:01:21.705Z,100468.25
2023-05-27T16:04:24.910Z,100461.91
2023-05-27T16:07:27.727Z,100454.28
2023-05-27T16:10:31.168Z,100461.59
2023-05-27T16:13:33.985Z,100457.16
2023-05-27T16:16:37.318Z,100444.91
2023-05-27T16:19:40.085Z,100449.97
2023-05-27T16:22:43.333Z,100441.78
2023-05-27T16:25:47.432Z,100448.34
2023-05-27T16:28:50.888Z,100443.03
2023-05-27T16:31:53.862Z,100452.56
2023-05-27T16:34:57.157Z,100444.69
2023-05-27T16:37:59.883Z,100453.25
2023-05-27T16:41:03.052Z,100439.91
2023-05-27T16:44:06.737Z,100436.75
2023-05-27T16:47:10.331Z,100442.41
2023-05-27T16:50:13.149Z,100441.13
2023-05-27T16:53:16.480Z,100446.34
2023-05-27T16:56:19.398Z,100448.16
2023-05-27T16:59:22.531Z,100446.78
2023-05-27T17:02:25.664Z,100453.69
2023-05-27T17:05:28.953Z,100441.69
2023-05-27T17:08:31.889Z,100448.00
2023-05-27T17:11:36.685Z,100448.22
2023-05-27T17:14:43.579Z,100453.84
2023-05-27T17:17:49.614Z,100442.88
2023-05-27T17:20:55.096Z,100442.97
2023-05-27T17:23:59.467Z,100451.66
2023-05-27T17:27:02.301Z,100446.28
2023-05-27T17:30:06.020Z,100449.06
2023-05-27T17:33:08.850Z,100456.41
2023-05-27T17:36:12.300Z,100463.59
2023-05-27T17:39:15.092Z,100457.97
2023-05-27T17:42:18.253Z,100460.63
2023-05-27T17:45:20.913Z,100466.47
2023-05-27T17:48:24.113Z,100475.47
2023-05-27T17:51:28.125Z,100483.19
2023-05-27T17:54:31.636Z,100475.81
2023-05-27T17:57:34.421Z,100485.50
2023-05-27T18:00:38.127Z,100487.75
2023-05-27T18:07:01.646Z,100495.47
2023-05-27T18:10:05.924Z,100501.37
2023-05-27T18:13:08.715Z,100503.09
2023-05-27T18:16:12.951Z,100496.97
2023-05-27T18:19:16.489Z,100502.91
2023-05-27T18:22:20.240Z,100506.34
2023-05-27T18:25:23.524Z,100509.72
2023-05-27T18:28:26.527Z,100518.50
2023-05-27T18:31:29.228Z,100519.16
2023-05-27T18:34:32.351Z,100510.50
2023-05-27T18:37:35.631Z,100520.75
2023-05-27T18:40:40.541Z,100513.94
2023-05-27T18:43:43.305Z,100527.78
2023-05-27T18:46:46.433Z,100529.50
2023-05-27T18:49:49.449Z,100525.56
2023-05-27T18:52:52.664Z,100531.19
2023-05-27T18:55:55.461Z,100527.31
2023-05-27T18:58:59.063Z,100538.09
2023-05-27T19:02:02.305Z,100539.78
2023-05-27T19:05:05.885Z,100540.91
2023-05-27T19:08:08.767Z,100537.59
2023-05-27T19:11:12.811Z,100541.13
2023-05-27T19:14:16.152Z,100545.56
2023-05-27T19:17:19.134Z,100553.78
2023-05-27T19:20:22.585Z,100542.19
2023-05-27T19:23:25.859Z,100542.50
2023-05-27T19:26:28.702Z,100545.31
2023-05-27T19:29:31.764Z,100549.25
2023-05-27T19:32:34.528Z,100544.56
2023-05-27T19:35:37.961Z,100555.03
2023-05-27T19:38:41.113Z,100555.06
2023-05-27T19:41:44.177Z,100561.28
2023-05-27T19:44:48.226Z,100562.50
2023-05-27T19:47:52.471Z,100563.31
2023-05-27T19:50:55.690Z,100560.16
2023-05-27T19:53:58.938Z,100559.53
2023-05-27T19:57:02.644Z,100560.19
2023-05-27T20:00:08.815Z,100559.94
2023-05-27T20:03:11.861Z,100554.94
2023-05-27T20:06:15.210Z,100556.69
2023-05-27T20:09:18.325Z,100552.81
2023-05-27T20:12:56.563Z,100556.56
2023-05-27T20:15:59.665Z,100558.22
2023-05-27T20:19:02.497Z,100555.31
2023-05-27T20:22:05.473Z,100547.91
2023-05-27T20:25:08.821Z,100552.66
2023-05-27T20:28:13.494Z,100547.47
2023-05-27T20:31:16.616Z,100549.13
2023-05-27T20:34:19.714Z,100555.47
2023-05-27T20:37:22.517Z,100559.94
2023-05-27T20:40:26.637Z,100554.84
2023-05-27T20:43:31.973Z,100563.78
2023-05-27T20:46:35.208Z,100563.28
2023-05-27T20:49:37.953Z,100559.00
2023-05-27T20:52:41.524Z,100554.06
2023-05-27T20:55:44.533Z,100548.47
2023-05-27T20:58:47.492Z,100548.50
2023-05-27T21:01:50.802Z,100549.78
2023-05-27T21:04:53.992Z,100556.28
2023-05-27T21:07:57.045Z,100555.47
2023-05-27T21:11:00.145Z,100556.75
2023-05-27T21:14:03.302Z,100555.56
2023-05-27T21:17:06.565Z,100554.38
2023-05-27T21:20:09.880Z,100558.94
2023-05-27T21:23:13.184Z,100560.22
2023-05-27T21:26:16.684Z,100550.16
2023-05-27T21:29:19.753Z,100549.81
2023-05-27T21:32:24.590Z,100569.97
2023-05-27T21:35:27.681Z,100597.53
2023-05-27T21:38:34.573Z,100581.19
2023-05-27T21:41:38.067Z,100581.97
2023-05-27T21:44:41.262Z,100576.34
2023-05-27T21:47:44.484Z,100581.12
2023-05-27T21:50:47.404Z,100577.13
2023-05-27T21:56:54.523Z,100577.13
2023-05-27T21:59:58.560Z,100579.53
2023-05-27T22:03:02.160Z,100573.13
2023-05-27T22:06:06.240Z,100575.94
2023-05-27T22:09:09.835Z,100573.19
2023-05-27T22:12:14.474Z,100568.34
2023-05-27T22:15:18.100Z,100569.56
2023-05-27T22:18:21.173Z,100571.19
2023-05-27T22:21:29.362Z,100564.34
2023-05-27T22:24:34.372Z,100570.78
2023-05-27T22:27:38.000Z,100565.56
2023-05-27T22:30:41.468Z,100563.56
2023-05-27T22:33:44.394Z,100569.97
2023-05-27T22:36:48.007Z,100575.56
2023-05-27T22:39:51.813Z,100567.59
2023-05-27T22:42:55.764Z,100571.97
2023-05-27T22:45:59.510Z,100558.38
2023-05-27T22:49:03.161Z,100563.19
2023-05-27T22:52:06.020Z,100562.37
2023-05-27T22:55:09.615Z,100559.19
2023-05-27T22:58:12.261Z,100564.34
2023-05-27T23:01:15.570Z,100562.37
2023-05-27T23:04:18.432Z,100559.97
2023-05-27T23:07:21.521Z,100555.97
2023-05-27T23:10:27.736Z,100562.37
2023-05-27T23:13:30.884Z,100563.19
2023-05-27T23:16:33.749Z,100560.38
2023-05-27T23:19:36.869Z,100561.56
2023-05-27T23:22:39.685Z,100558.78
2023-05-27T23:25:42.872Z,100558.78
2023-05-27T23:28:45.835Z,100553.19
2023-05-27T23:31:49.160Z,100553.56
2023-05-27T23:34:52.131Z,100540.81
2023-05-27T23:37:55.307Z,100551.16
2023-05-27T23:40:58.090Z,100551.53
2023-05-27T23:44:01.269Z,100544.38
2023-05-27T23:47:04.232Z,100540.75
2023-05-27T23:50:09.126Z,100535.94
2023-05-27T23:53:11.898Z,100541.50
2023-05-27T23:56:15.256Z,100532.31
2023-05-27T23:59:17.969Z,100529.94
